Warning: Javascript must be enabled to use all the features on this page!


Page Loading - Please Wait...

Click to hideNews Bulletins

Peak Streamflow for the Nation

USGS 02379500 CARTECAY RIVER NEAR ELLIJAY, GA

Gilmer County, Georgia
Hydrologic Unit Code 03150102
Latitude  34°41'02.9", Longitude  84°27'31.7" NAD83
Drainage area 134.00  square miles
Gage datum 1,255.39 feet above NGVD29
Output formats
Table
Graph
Tab-separated file
peakfq (watstore) format
Reselect output format
Water
Year
Date Gage
Height
(feet)
Stream-
flow
(cfs)
1938 1938-04-08 13.00 20,000
1939 1939-02-15 4.77 2,280
1940 1940-08-13 4.43 1,980
1941 1941-07-05 4.14 1,700
1942 1942-02-17 5.73 3,360
1943 1942-12-29 5.88 3,620
1944 1944-02-27 5.50 3,120
1945 1945-02-17 3.50 1,150
1946 1946-02-10 8.10 6,960
1947 1947-01-20 7.46 5,940
1948 1948-02-12 5.56 3,240
1949 1948-11-28 6.77 4,860
1950 1950-03-13 7.74 6,260
1951 1951-03-29 10.40 12,000
1952 1952-03-11 6.80 4,860
1953 1953-02-21 5.33 2,940
1954 1954-01-16 9.60 10,000
1955 1955-03-22 6.80 4,860
1956 1956-04-15 6.10 3,880
1957 1957-04-04 7.53 5,940
1958 1957-12-20 4.76 2,280
1959 1959-01-21 4.27 1,780
1960 1960-03-03 3.55 1,140
1961 1961-02-25 7.12 5,300
1962 1961-12-12 8.53 7,760
1963 1963-04-30 7.76 6,440
1964 1964-03-26 7.57 6,160
1965 1964-10-04 7.05 5,420
1966 1966-03-04 6.76 5,010
1967 1967-08-23 6.25 4,090
1968 1968-04-05 4.70 2,230
1969 1969-02-02 5.60 3,240
1970 1970-06-04 5.16 2,730
1971 1971-01-24 4.45 1,980
1972 1972-01-10 5.22 2,790
1973 1973-05-28 9.22 9,100
1974 1974-04-13 6.70 4,720
1975 1975-01-25 5.10 2,740
1976 1976-05-15 6.49 4,640
1977 1977-03-30 9.15 9,190
1978 1977-11-05 5.90 3,620
1979 1979-03-04 9.75 10,400
1980 1980-03-21 7.10 5,300
1981 1981-02-10 4.32 1,860
1982 1982-02-03 8.61 7,920
1983 1983-02-02 5.20 2,770
1985 1985-02-01 4.32 1,860
1986 1986-08-20 3.42 1,060
1990 1990-02-16 8.33 7,5007
2010 2010-01-24 5.40 3,350
2011 2011-03-09 4.32 2,030
2012 2012-03-03 4.57 2,320
2013 2013-08-01 10.21  
2014 2014-04-07 5.25 3,160
2015 2015-01-04 5.01 2,860
2016 2015-12-24 11.08  
2017 2017-07-08 4.05 1,750
2018 2018-03-01 6.87 5,0002
2019 2019-04-19 6.53 4,5302
2020 2020-02-06 7.10 5,7202
2021 2021-03-25 9.62 9,9902
?
  Peak Streamflow Qualification Codes.